Time;durP1;ratioP1;P1;durP2;ratioP2;P2;SDS_P1;SDS_P2;PMS_P1;PMS_P2;Temp;Humidity;BMP_temperature;BMP_pressure;BME280_temperature;BME280_humidity;BME280_pressure;Samples;Min_cycle;Max_cycle;Signal;HPM_P1;HPM_P2
2022/08/07 00:00:01;;;;;;;0.70;0.40;;;14.10;92.60;;;;;;4977943;28;20029;-71
2022/08/07 00:02:28;;;;;;;0.40;0.40;;;14.20;92.20;;;;;;4979289;28;20046;-71
2022/08/07 00:04:55;;;;;;;0.50;0.40;;;14.30;91.90;;;;;;4977645;28;20022;-71
2022/08/07 00:07:23;;;;;;;0.85;0.85;;;14.40;92.10;;;;;;4977479;28;20801;-71
2022/08/07 00:09:50;;;;;;;0.40;0.40;;;14.50;91.70;;;;;;4979143;28;20027;-71
2022/08/07 00:12:17;;;;;;;0.50;0.50;;;14.40;91.50;;;;;;4979170;28;20026;-71
2022/08/07 00:14:45;;;;;;;0.40;0.40;;;14.50;91.40;;;;;;4978825;28;20019;-71
2022/08/07 00:17:12;;;;;;;0.40;0.40;;;14.60;91.60;;;;;;4975357;28;20054;-73
2022/08/07 00:19:39;;;;;;;0.68;0.40;;;14.60;91.10;;;;;;4980661;28;20023;-71
2022/08/07 00:22:07;;;;;;;0.60;0.40;;;14.70;91.30;;;;;;4977819;28;20033;-72
2022/08/07 00:24:34;;;;;;;1.50;0.40;;;14.70;91.10;;;;;;4979480;28;20610;-70
2022/08/07 00:27:01;;;;;;;0.50;0.40;;;14.70;91.00;;;;;;4978457;28;20026;-69
2022/08/07 00:29:29;;;;;;;0.90;0.88;;;14.80;90.90;;;;;;4979677;28;20030;-71
2022/08/07 00:31:58;;;;;;;0.93;0.50;;;14.90;90.80;;;;;;4979795;28;20022;-73
2022/08/07 00:34:26;;;;;;;0.40;0.40;;;14.90;90.60;;;;;;4979380;28;20062;-73
2022/08/07 00:36:54;;;;;;;0.90;0.40;;;15.00;90.60;;;;;;4980093;28;20030;-73
2022/08/07 00:39:21;;;;;;;0.35;0.30;;;15.10;90.50;;;;;;4977994;28;20746;-70
2022/08/07 00:41:55;;;;;;;1.50;0.40;;;15.10;90.40;;;;;;4976159;28;20121;-69
2022/08/07 00:44:23;;;;;;;0.35;0.30;;;15.20;90.70;;;;;;4977526;28;20041;-71
2022/08/07 00:46:50;;;;;;;0.30;0.30;;;15.20;90.40;;;;;;4979864;28;20034;-71
2022/08/07 00:49:18;;;;;;;0.30;0.30;;;15.20;90.40;;;;;;4977663;28;20022;-73
2022/08/07 00:51:46;;;;;;;0.40;0.40;;;15.30;90.10;;;;;;4977244;28;20109;-71
2022/08/07 00:54:14;;;;;;;0.95;0.60;;;15.30;90.20;;;;;;4977886;28;20025;-71
2022/08/07 00:56:41;;;;;;;0.40;0.40;;;15.40;90.10;;;;;;4978762;28;20038;-70
2022/08/07 00:59:09;;;;;;;0.60;0.50;;;15.50;90.20;;;;;;4976596;28;20030;-70
2022/08/07 01:01:37;;;;;;;0.40;0.40;;;15.50;90.00;;;;;;4978563;28;20031;-71
2022/08/07 01:04:06;;;;;;;0.98;0.40;;;15.60;90.00;;;;;;4977766;28;20327;-71
2022/08/07 01:06:35;;;;;;;0.70;0.50;;;15.70;90.20;;;;;;4979242;28;20015;-72
2022/08/07 01:09:03;;;;;;;0.43;0.40;;;15.80;90.20;;;;;;4978083;28;20459;-70
2022/08/07 01:11:31;;;;;;;0.60;0.50;;;15.90;89.40;;;;;;4979997;28;20065;-70
2022/08/07 01:13:59;;;;;;;0.43;0.43;;;16.00;89.30;;;;;;4974219;28;20026;-69
2022/08/07 01:16:27;;;;;;;0.47;0.30;;;16.10;88.80;;;;;;4975620;28;20022;-72
2022/08/07 01:18:55;;;;;;;0.40;0.35;;;16.30;87.70;;;;;;4978883;28;20050;-71
2022/08/07 01:21:25;;;;;;;0.40;0.40;;;16.50;87.40;;;;;;4976388;28;20122;-71
2022/08/07 01:23:56;;;;;;;0.50;0.50;;;16.60;87.20;;;;;;4979474;28;20018;-71
2022/08/07 01:26:23;;;;;;;1.15;0.65;;;16.80;87.20;;;;;;4978350;28;20029;-69
2022/08/07 01:28:52;;;;;;;0.70;0.50;;;17.00;86.70;;;;;;4979686;28;20512;-70
2022/08/07 01:31:20;;;;;;;0.80;0.60;;;17.30;86.00;;;;;;4976610;28;20034;-72
2022/08/07 01:33:48;;;;;;;1.90;1.02;;;17.40;84.60;;;;;;4977929;28;20030;-71
2022/08/07 01:36:19;;;;;;;1.00;0.60;;;17.50;84.20;;;;;;4976294;28;20034;-73
2022/08/07 01:38:47;;;;;;;10.00;3.75;;;17.40;83.80;;;;;;4978017;28;20027;-71
2022/08/07 01:41:18;;;;;;;1.95;0.80;;;17.40;84.70;;;;;;4976143;28;20088;-71
2022/08/07 01:43:50;;;;;;;1.95;0.82;;;17.30;84.10;;;;;;4976122;28;20038;-71
2022/08/07 01:46:19;;;;;;;2.15;1.15;;;17.20;84.80;;;;;;4977096;28;20153;-72
2022/08/07 01:48:47;;;;;;;1.70;0.93;;;17.10;85.40;;;;;;4978900;28;20030;-72
2022/08/07 01:51:19;;;;;;;2.67;0.60;;;17.00;86.50;;;;;;4977481;28;20209;-69
2022/08/07 01:53:52;;;;;;;1.05;0.90;;;17.10;85.60;;;;;;4978517;28;20030;-69
2022/08/07 01:56:31;;;;;;;1.00;0.90;;;17.40;85.40;;;;;;4977225;28;20033;-70
2022/08/07 01:59:22;;;;;;;2.15;1.15;;;17.80;84.60;;;;;;4968298;28;20042;-73
2022/08/07 02:02:17;;;;;;;2.42;1.17;;;17.90;83.40;;;;;;4960059;28;20051;-71
2022/08/07 02:05:03;;;;;;;2.35;1.23;;;17.90;82.60;;;;;;4969448;28;20140;-71
2022/08/07 02:07:38;;;;;;;2.00;0.60;;;17.80;82.10;;;;;;4977623;28;20515;-70
2022/08/07 02:10:10;;;;;;;2.15;0.63;;;17.70;81.60;;;;;;4979083;28;20053;-71
2022/08/07 02:12:40;;;;;;;4.05;1.60;;;17.60;81.70;;;;;;4978749;28;20735;-70
2022/08/07 02:15:09;;;;;;;2.38;1.25;;;17.60;81.50;;;;;;4978685;28;20033;-70
2022/08/07 02:17:39;;;;;;;2.63;1.35;;;17.80;81.80;;;;;;4958760;28;20022;-70
2022/08/07 02:20:08;;;;;;;4.22;2.25;;;17.70;80.70;;;;;;4971909;28;20029;-72
2022/08/07 02:22:40;;;;;;;8.98;5.22;;;17.70;80.80;;;;;;4975155;28;20038;-71
2022/08/07 02:25:09;;;;;;;4.30;2.67;;;17.60;80.70;;;;;;4974111;28;20026;-69
2022/08/07 02:27:38;;;;;;;3.20;1.70;;;17.40;81.20;;;;;;4972865;28;20046;-72
2022/08/07 02:30:06;;;;;;;3.28;2.00;;;17.20;81.90;;;;;;4975553;28;20443;-70
2022/08/07 02:32:38;;;;;;;3.63;1.77;;;17.00;82.60;;;;;;4975124;28;20125;-71
2022/08/07 02:35:07;;;;;;;3.38;2.10;;;17.00;83.00;;;;;;4975160;28;20029;-70
2022/08/07 02:37:38;;;;;;;3.00;1.75;;;16.80;82.60;;;;;;4976627;28;20034;-72
2022/08/07 02:40:08;;;;;;;5.63;2.40;;;16.70;82.30;;;;;;4977448;28;20022;-70
2022/08/07 02:42:36;;;;;;;6.45;2.90;;;16.60;83.10;;;;;;4976572;28;20023;-71
2022/08/07 02:45:06;;;;;;;5.13;2.50;;;16.60;83.00;;;;;;4976820;28;20188;-72
2022/08/07 02:47:33;;;;;;;6.65;2.47;;;16.70;83.00;;;;;;4975934;28;20479;-70
2022/08/07 02:50:01;;;;;;;2.00;1.48;;;16.90;82.60;;;;;;4976986;28;20057;-72
2022/08/07 02:52:55;;;;;;;3.58;2.08;;;17.50;80.70;;;;;;4975344;28;20081;-68
2022/08/07 02:55:30;;;;;;;3.75;1.80;;;17.80;80.20;;;;;;4975760;28;20030;-70
2022/08/07 02:58:04;;;;;;;2.75;1.27;;;17.60;79.50;;;;;;4976192;28;20039;-69
2022/08/07 03:00:34;;;;;;;2.22;1.42;;;17.50;79.30;;;;;;4974881;28;20092;-72
2022/08/07 03:03:03;;;;;;;3.38;1.40;;;17.50;79.70;;;;;;4975861;28;20097;-73
2022/08/07 03:05:32;;;;;;;2.35;0.88;;;17.40;80.30;;;;;;4975033;28;20014;-71
2022/08/07 03:07:59;;;;;;;3.90;1.92;;;17.40;81.10;;;;;;4976213;28;20026;-71
2022/08/07 03:10:27;;;;;;;3.58;2.95;;;17.30;80.90;;;;;;4974386;28;20022;-71
2022/08/07 03:12:54;;;;;;;5.70;2.90;;;17.20;82.40;;;;;;4976241;28;20507;-72
2022/08/07 03:15:22;;;;;;;4.00;2.53;;;17.20;83.60;;;;;;4975872;28;20038;-72
2022/08/07 03:17:50;;;;;;;3.78;2.58;;;17.10;83.80;;;;;;4971991;28;20027;-72
2022/08/07 03:20:18;;;;;;;4.50;1.88;;;17.10;83.90;;;;;;4975709;28;20019;-72
2022/08/07 03:22:47;;;;;;;3.33;1.70;;;17.00;84.00;;;;;;4975359;28;20061;-71
2022/08/07 03:25:17;;;;;;;3.47;1.17;;;17.60;83.80;;;;;;4974852;28;20088;-72
2022/08/07 03:27:46;;;;;;;2.67;1.45;;;18.20;80.30;;;;;;4974102;28;20065;-72
2022/08/07 03:30:15;;;;;;;2.80;1.42;;;18.40;80.30;;;;;;4975043;28;20014;-73
2022/08/07 03:32:45;;;;;;;3.20;1.08;;;18.40;80.70;;;;;;4974567;28;20022;-71
2022/08/07 03:35:21;;;;;;;3.33;1.27;;;18.60;80.70;;;;;;4973742;28;20027;-73
2022/08/07 03:38:02;;;;;;;3.67;2.00;;;18.60;80.10;;;;;;4973170;28;20023;-70
2022/08/07 03:40:30;;;;;;;2.30;1.10;;;18.50;80.50;;;;;;4977390;28;20030;-71
2022/08/07 03:42:59;;;;;;;2.40;1.50;;;18.40;80.50;;;;;;4976551;28;20037;-73
2022/08/07 03:45:28;;;;;;;3.33;1.60;;;18.10;81.40;;;;;;4978516;28;20035;-72
2022/08/07 03:47:57;;;;;;;4.78;2.45;;;17.80;82.40;;;;;;4978638;28;20427;-70
2022/08/07 03:50:26;;;;;;;4.45;2.13;;;17.70;83.20;;;;;;4979092;28;20529;-70
2022/08/07 03:52:55;;;;;;;3.13;1.45;;;17.50;83.80;;;;;;4976209;28;20474;-72
2022/08/07 03:55:22;;;;;;;3.30;1.80;;;17.40;84.60;;;;;;4977516;28;20048;-72
2022/08/07 03:57:51;;;;;;;1.83;1.38;;;17.80;84.50;;;;;;4978886;28;20168;-71
2022/08/07 04:00:18;;;;;;;2.30;1.83;;;17.90;83.60;;;;;;4980398;28;20032;-73
2022/08/07 04:02:46;;;;;;;2.20;0.98;;;18.00;82.90;;;;;;4995676;28;20042;-73
2022/08/07 04:05:13;;;;;;;2.28;0.90;;;18.50;82.90;;;;;;4980561;28;20506;-73
2022/08/07 04:07:48;;;;;;;4.15;0.75;;;19.20;81.90;;;;;;4980233;28;20049;-70
2022/08/07 04:10:15;;;;;;;2.28;0.70;;;19.50;82.40;;;;;;4981106;28;20019;-73
2022/08/07 04:12:43;;;;;;;1.30;0.43;;;19.60;81.60;;;;;;4980615;28;20022;-73
2022/08/07 04:15:11;;;;;;;1.25;0.40;;;19.40;80.60;;;;;;4979838;28;20081;-72
2022/08/07 04:17:41;;;;;;;2.05;0.50;;;19.00;83.50;;;;;;4979281;28;20022;-73
2022/08/07 04:20:13;;;;;;;0.70;0.50;;;18.80;86.20;;;;;;4980049;28;20123;-71
2022/08/07 04:22:41;;;;;;;3.40;1.30;;;18.30;89.30;;;;;;4979764;28;20462;-68
2022/08/07 04:25:09;;;;;;;2.05;1.42;;;18.10;90.60;;;;;;4979763;28;20089;-69
2022/08/07 04:27:37;;;;;;;2.90;1.40;;;18.60;90.50;;;;;;4979684;28;20494;-70
2022/08/07 04:30:05;;;;;;;5.07;1.70;;;19.50;88.80;;;;;;4980231;28;20044;-69
2022/08/07 04:32:33;;;;;;;3.15;1.73;;;20.40;84.80;;;;;;4979361;28;20030;-70
2022/08/07 04:35:03;;;;;;;3.38;1.40;;;21.20;82.10;;;;;;4978710;28;20030;-70
2022/08/07 04:37:32;;;;;;;3.42;2.10;;;21.90;80.00;;;;;;4979247;28;20030;-69
2022/08/07 04:39:59;;;;;;;3.67;2.03;;;22.40;78.10;;;;;;4978816;28;20072;-71
2022/08/07 04:42:33;;;;;;;4.57;2.15;;;22.80;77.50;;;;;;4978891;28;20034;-71
2022/08/07 04:45:02;;;;;;;3.92;2.58;;;22.70;75.80;;;;;;4978474;28;20048;-69
2022/08/07 04:47:35;;;;;;;5.07;2.13;;;22.70;76.20;;;;;;4978854;28;20065;-71
2022/08/07 04:50:25;;;;;;;5.85;3.80;;;22.90;77.00;;;;;;4976971;28;20058;-70
2022/08/07 04:53:20;;;;;;;2.90;1.88;;;23.20;76.10;;;;;;4978777;28;20426;-72
2022/08/07 04:55:54;;;;;;;3.33;1.67;;;23.20;73.80;;;;;;4978006;28;20126;-69
2022/08/07 04:58:36;;;;;;;2.10;1.20;;;22.70;74.00;;;;;;4977802;28;20058;-71
2022/08/07 05:01:17;;;;;;;2.20;1.35;;;22.10;75.80;;;;;;4973387;28;20029;-70
2022/08/07 05:03:56;;;;;;;2.50;1.70;;;21.50;77.80;;;;;;4977617;28;20133;-70
2022/08/07 05:06:52;;;;;;;5.97;3.08;;;20.70;78.80;;;;;;4978556;28;20033;-69
2022/08/07 05:09:29;;;;;;;4.30;1.55;;;20.00;81.40;;;;;;4977664;28;20053;-69
2022/08/07 05:11:58;;;;;;;5.93;3.45;;;19.30;87.30;;;;;;4976216;28;20542;-71
2022/08/07 05:14:33;;;;;;;4.65;3.45;;;19.10;89.80;;;;;;4974957;28;20650;-69
2022/08/07 05:17:02;;;;;;;3.60;2.67;;;19.20;88.60;;;;;;4978418;28;20042;-69
2022/08/07 05:19:40;;;;;;;3.35;2.10;;;19.70;87.10;;;;;;4976167;28;20023;-70
2022/08/07 05:22:08;;;;;;;3.08;1.10;;;19.80;84.80;;;;;;4978597;28;20058;-69
2022/08/07 05:24:38;;;;;;;1.92;1.08;;;19.70;82.50;;;;;;4977043;28;20026;-73
2022/08/07 05:27:08;;;;;;;3.00;1.30;;;19.50;84.80;;;;;;4976829;28;20057;-71
2022/08/07 05:29:39;;;;;;;3.35;1.50;;;19.00;84.80;;;;;;4975954;28;20479;-70
2022/08/07 05:32:10;;;;;;;1.80;1.23;;;18.70;86.50;;;;;;4978211;28;20114;-70
2022/08/07 05:34:39;;;;;;;3.05;1.40;;;18.30;86.40;;;;;;4978140;28;20202;-69
2022/08/07 05:37:07;;;;;;;3.40;1.20;;;18.20;88.00;;;;;;4978813;28;20022;-71
2022/08/07 05:39:36;;;;;;;2.42;1.35;;;18.10;87.40;;;;;;4978145;28;20046;-72
2022/08/07 05:42:04;;;;;;;1.98;1.10;;;18.30;87.80;;;;;;4979120;28;20038;-69
2022/08/07 05:44:35;;;;;;;1.65;1.13;;;18.60;87.40;;;;;;4979000;28;20521;-69
2022/08/07 05:47:03;;;;;;;3.63;1.17;;;18.80;84.10;;;;;;4979130;28;20077;-71
2022/08/07 05:49:33;;;;;;;3.17;1.23;;;18.80;84.50;;;;;;4978942;28;20109;-69
2022/08/07 05:52:00;;;;;;;4.55;1.90;;;19.00;84.70;;;;;;4979363;28;20049;-69
2022/08/07 05:54:27;;;;;;;2.95;1.60;;;19.30;83.50;;;;;;4979284;28;20050;-70
2022/08/07 05:56:56;;;;;;;2.55;1.33;;;19.50;81.60;;;;;;4978753;28;20073;-72
2022/08/07 05:59:25;;;;;;;3.58;1.13;;;19.80;81.10;;;;;;4978517;28;20109;-72
2022/08/07 06:01:56;;;;;;;9.25;2.03;;;20.20;80.00;;;;;;4978070;28;20081;-72
2022/08/07 06:04:25;;;;;;;3.58;1.50;;;20.50;79.60;;;;;;4979081;28;20365;-72
2022/08/07 06:06:52;;;;;;;3.70;1.45;;;21.00;78.50;;;;;;4978615;28;20411;-72
2022/08/07 06:09:20;;;;;;;2.67;1.42;;;21.60;77.10;;;;;;4979946;28;20023;-69
2022/08/07 06:11:47;;;;;;;2.97;1.17;;;22.10;76.20;;;;;;4978935;28;20100;-72
2022/08/07 06:14:14;;;;;;;7.22;1.42;;;22.30;76.00;;;;;;4978611;28;20165;-73
2022/08/07 06:16:47;;;;;;;4.60;1.63;;;22.50;74.90;;;;;;4977670;28;20029;-71
2022/08/07 06:19:16;;;;;;;4.00;1.55;;;22.70;75.00;;;;;;4979316;28;20491;-69
2022/08/07 06:21:45;;;;;;;1.98;1.10;;;22.80;73.90;;;;;;4977714;28;20414;-73
2022/08/07 06:24:13;;;;;;;4.05;1.17;;;22.80;75.30;;;;;;4978205;28;20375;-71
2022/08/07 06:26:42;;;;;;;4.55;2.00;;;22.80;74.80;;;;;;4977898;28;20422;-73
2022/08/07 06:29:09;;;;;;;5.15;2.10;;;22.80;74.70;;;;;;4978531;28;20030;-73
2022/08/07 06:31:37;;;;;;;5.95;1.55;;;22.80;73.70;;;;;;4978265;28;20027;-72
2022/08/07 06:34:04;;;;;;;6.78;2.70;;;22.10;73.90;;;;;;4978687;28;20069;-72
2022/08/07 06:36:31;;;;;;;6.35;2.97;;;21.20;74.70;;;;;;4978681;28;20033;-72
2022/08/07 06:38:58;;;;;;;4.80;3.35;;;20.40;76.70;;;;;;4978260;28;20037;-71
2022/08/07 06:41:34;;;;;;;3.10;1.90;;;19.80;78.20;;;;;;4978611;28;20041;-70
2022/08/07 06:44:02;;;;;;;3.85;2.33;;;19.20;80.20;;;;;;4978061;28;20092;-73
2022/08/07 06:46:30;;;;;;;3.67;2.25;;;18.80;81.30;;;;;;4978627;28;20117;-71
2022/08/07 06:48:57;;;;;;;4.70;1.88;;;18.50;82.10;;;;;;4978206;28;20034;-71
2022/08/07 06:51:28;;;;;;;5.93;2.88;;;18.20;83.20;;;;;;4977630;28;20524;-69
2022/08/07 06:54:02;;;;;;;5.65;2.70;;;18.00;84.40;;;;;;4978457;28;20519;-70
2022/08/07 06:56:42;;;;;;;6.70;3.92;;;17.70;85.70;;;;;;4978182;28;20030;-70
2022/08/07 06:59:19;;;;;;;5.88;3.58;;;17.40;86.60;;;;;;4978583;28;20022;-72
2022/08/07 07:01:48;;;;;;;7.60;3.25;;;17.10;87.90;;;;;;4976856;28;20876;-72
2022/08/07 07:04:16;;;;;;;6.75;5.30;;;17.00;88.40;;;;;;4959106;28;20491;-70
2022/08/07 07:06:44;;;;;;;4.65;3.30;;;16.80;88.80;;;;;;4958680;28;20019;-71
2022/08/07 07:09:19;;;;;;;8.65;4.35;;;16.60;89.90;;;;;;4958772;28;20034;-71
2022/08/07 07:12:04;;;;;;;8.38;3.38;;;16.50;90.40;;;;;;4957927;28;20026;-71
2022/08/07 07:15:21;;;;;;;6.10;2.15;;;16.40;90.60;;;;;;4967770;28;20029;-71
2022/08/07 07:18:07;;;;;;;4.18;1.55;;;16.20;90.60;;;;;;4984569;28;20035;-72
2022/08/07 07:20:46;;;;;;;4.85;2.85;;;16.00;90.80;;;;;;4981546;28;20067;-73
2022/08/07 07:23:14;;;;;;;7.20;3.42;;;15.90;91.10;;;;;;4981577;28;20057;-72
2022/08/07 07:25:44;;;;;;;10.50;6.07;;;15.80;91.30;;;;;;4981365;28;20076;-72
2022/08/07 07:28:28;;;;;;;9.00;4.40;;;15.70;91.50;;;;;;4981602;28;20029;-73
2022/08/07 07:31:09;;;;;;;9.27;5.07;;;15.60;91.80;;;;;;4980681;28;20218;-71
2022/08/07 07:33:39;;;;;;;8.75;4.90;;;15.50;91.90;;;;;;4981167;28;20162;-73
2022/08/07 07:36:08;;;;;;;6.43;3.47;;;15.40;92.20;;;;;;4981807;28;20030;-71
2022/08/07 07:38:36;;;;;;;13.05;5.25;;;15.40;92.30;;;;;;4981190;28;20102;-70
2022/08/07 07:41:07;;;;;;;9.52;4.97;;;15.30;92.50;;;;;;4981814;28;20022;-71
2022/08/07 07:43:36;;;;;;;8.15;3.22;;;15.20;92.60;;;;;;4982393;28;20026;-73
2022/08/07 07:46:05;;;;;;;9.02;3.42;;;15.10;92.70;;;;;;4981534;28;20022;-71
2022/08/07 07:48:35;;;;;;;6.20;3.97;;;15.10;92.70;;;;;;4981945;28;20031;-72
2022/08/07 07:51:04;;;;;;;7.18;4.40;;;15.10;92.70;;;;;;4980947;28;20022;-71
2022/08/07 07:53:33;;;;;;;7.88;5.28;;;15.00;92.80;;;;;;4981493;28;20440;-71
2022/08/07 07:56:01;;;;;;;12.88;5.55;;;14.90;92.70;;;;;;4981034;28;20061;-72
2022/08/07 07:58:33;;;;;;;8.50;4.05;;;14.90;93.00;;;;;;4980669;28;20054;-72
2022/08/07 08:01:02;;;;;;;7.00;5.13;;;14.80;92.80;;;;;;4980035;28;20022;-70
2022/08/07 08:03:31;;;;;;;6.45;4.10;;;14.70;92.80;;;;;;4980213;28;20399;-71
2022/08/07 08:05:59;;;;;;;8.27;3.22;;;14.80;92.90;;;;;;4979478;28;20058;-72
2022/08/07 08:08:31;;;;;;;7.32;3.58;;;14.70;92.90;;;;;;4980847;28;20026;-74
2022/08/07 08:11:00;;;;;;;6.72;3.25;;;14.70;93.00;;;;;;4980098;28;20031;-71
2022/08/07 08:13:29;;;;;;;6.93;3.72;;;14.70;93.20;;;;;;4980350;28;20018;-71
2022/08/07 08:16:00;;;;;;;7.45;3.47;;;14.70;93.20;;;;;;4979769;28;20042;-72
2022/08/07 08:18:29;;;;;;;7.07;4.18;;;14.70;93.00;;;;;;4981014;28;20022;-71
2022/08/07 08:21:00;;;;;;;7.13;3.60;;;14.60;92.90;;;;;;4980136;28;20022;-72
2022/08/07 08:29:05;;;;;;;7.78;3.22;;;14.50;93.30;;;;;;4979553;28;20041;-72
2022/08/07 08:31:35;;;;;;;6.55;3.63;;;14.50;93.40;;;;;;4980206;28;20034;-71
2022/08/07 08:34:12;;;;;;;6.30;3.60;;;14.50;93.50;;;;;;4979124;28;20113;-71
2022/08/07 08:36:42;;;;;;;6.80;3.58;;;14.40;93.50;;;;;;4995724;28;20031;-73
2022/08/07 08:39:13;;;;;;;6.28;4.78;;;14.40;93.50;;;;;;4994564;28;20053;-70
2022/08/07 08:42:26;;;;;;;9.75;5.63;;;14.40;93.60;;;;;;4979226;28;20369;-71
2022/08/07 08:45:29;;;;;;;8.65;5.07;;;14.40;93.60;;;;;;4980090;28;20105;-70
2022/08/07 08:48:21;;;;;;;9.60;5.05;;;14.40;93.70;;;;;;4979874;28;20046;-72
2022/08/07 08:50:54;;;;;;;7.10;3.70;;;14.40;93.70;;;;;;4960545;28;20106;-75
2022/08/07 08:53:59;;;;;;;5.20;3.20;;;14.30;93.80;;;;;;4976779;28;20475;-72
2022/08/07 08:56:38;;;;;;;7.28;2.50;;;14.30;93.90;;;;;;4979946;28;20019;-71
2022/08/07 08:59:34;;;;;;;5.38;2.78;;;14.30;94.00;;;;;;4977223;28;20351;-71
2022/08/07 09:02:19;;;;;;;9.02;3.70;;;14.30;94.10;;;;;;4979064;28;20034;-71
2022/08/07 09:05:12;;;;;;;8.77;4.00;;;14.20;94.20;;;;;;4979592;28;20121;-72
2022/08/07 09:07:48;;;;;;;;;;;14.20;94.30;;;;;;4980609;28;20101;-71
2022/08/07 09:10:19;;;;;;;9.95;4.00;;;14.10;94.30;;;;;;4979523;28;20651;-73
2022/08/07 09:13:03;;;;;;;7.40;3.45;;;14.10;94.50;;;;;;4980906;28;20065;-71
2022/08/07 09:16:10;;;;;;;6.90;2.08;;;14.00;94.70;;;;;;4959034;28;20034;-72
2022/08/07 09:19:07;;;;;;;5.25;2.30;;;14.00;94.60;;;;;;4961089;28;20023;-70
2022/08/07 09:21:57;;;;;;;7.82;3.55;;;13.90;94.70;;;;;;4959522;28;20494;-71
2022/08/07 09:24:40;;;;;;;5.20;2.75;;;13.90;94.80;;;;;;4962276;28;20118;-69
2022/08/07 09:27:29;;;;;;;5.68;3.42;;;13.90;94.90;;;;;;4976860;28;20022;-71
2022/08/07 09:30:17;;;;;;;9.05;4.38;;;13.80;94.90;;;;;;4978919;28;20023;-71
2022/08/07 09:33:19;;;;;;;8.70;3.80;;;13.80;94.80;;;;;;4978599;28;20022;-71
2022/08/07 09:35:58;;;;;;;9.87;3.63;;;13.70;95.00;;;;;;4981947;28;20122;-71
2022/08/07 09:38:54;;;;;;;10.32;3.03;;;13.70;94.90;;;;;;4978192;28;20050;-71
2022/08/07 09:41:34;;;;;;;6.68;2.90;;;13.70;95.00;;;;;;5010740;28;20176;-70
2022/08/07 09:44:38;;;;;;;6.65;2.58;;;13.80;94.90;;;;;;4976362;28;20438;-73
2022/08/07 09:47:33;;;;;;;5.30;2.53;;;13.80;94.70;;;;;;4978492;28;20027;-72
2022/08/07 09:50:09;;;;;;;7.68;3.30;;;13.90;94.70;;;;;;4978678;28;20030;-71
2022/08/07 09:53:09;;;;;;;3.90;2.33;;;13.90;94.50;;;;;;4978899;28;20022;-70
2022/08/07 09:56:04;;;;;;;3.75;2.00;;;14.00;94.40;;;;;;4998745;28;20035;-69
2022/08/07 09:59:08;;;;;;;5.97;1.80;;;14.00;94.40;;;;;;4972373;28;20053;-69
2022/08/07 10:01:57;;;;;;;3.92;1.80;;;14.00;94.40;;;;;;4958392;28;20029;-69
2022/08/07 10:04:46;;;;;;;7.60;1.65;;;14.00;94.30;;;;;;4964288;28;20026;-72
2022/08/07 10:07:40;;;;;;;8.02;2.10;;;14.00;94.10;;;;;;4978917;28;20026;-72
2022/08/07 10:10:41;;;;;;;5.88;2.60;;;13.90;94.10;;;;;;4979703;28;20034;-69
2022/08/07 10:13:39;;;;;;;3.83;1.75;;;13.90;94.30;;;;;;4996369;28;20125;-70
2022/08/07 10:16:25;;;;;;;5.90;1.77;;;13.80;94.20;;;;;;4973769;28;20032;-72
2022/08/07 10:19:02;;;;;;;5.03;2.30;;;13.80;94.40;;;;;;4970160;28;20162;-71
2022/08/07 10:22:16;;;;;;;4.35;1.40;;;13.70;94.40;;;;;;4978978;28;20045;-76
2022/08/07 10:25:20;;;;;;;3.70;1.20;;;13.60;94.30;;;;;;4994393;28;20072;-71
2022/08/07 10:28:05;;;;;;;6.78;2.40;;;13.50;94.40;;;;;;4977237;28;20298;-70
2022/08/07 10:31:00;;;;;;;4.80;1.75;;;13.40;94.30;;;;;;4978731;28;20145;-74
2022/08/07 10:33:27;;;;;;;3.55;1.17;;;13.50;94.40;;;;;;4979257;28;20030;-71
2022/08/07 10:36:23;;;;;;;4.53;1.58;;;13.40;94.40;;;;;;4975316;28;20014;-70
2022/08/07 10:39:10;;;;;;;4.30;1.25;;;13.40;94.50;;;;;;4989725;28;20428;-71
2022/08/07 10:41:53;;;;;;;4.30;1.30;;;13.40;94.60;;;;;;4976171;28;20045;-73
2022/08/07 10:44:42;;;;;;;3.53;0.90;;;13.30;94.70;;;;;;4977175;28;20027;-72
2022/08/07 10:47:38;;;;;;;5.65;2.38;;;13.30;94.70;;;;;;4976420;28;20053;-70
2022/08/07 10:50:23;;;;;;;5.70;1.98;;;13.30;94.70;;;;;;4978754;28;20023;-71
2022/08/07 10:53:17;;;;;;;2.63;1.70;;;13.20;94.80;;;;;;4976811;28;20127;-69
2022/08/07 10:55:50;;;;;;;5.20;2.00;;;13.20;94.90;;;;;;4979563;28;20097;-69
2022/08/07 10:58:43;;;;;;;4.65;1.65;;;13.20;95.00;;;;;;4977811;28;20050;-73
2022/08/07 11:01:38;;;;;;;7.40;4.32;;;13.10;95.10;;;;;;4964588;28;20109;-72
2022/08/07 11:04:30;;;;;;;6.38;2.70;;;13.10;95.20;;;;;;4973270;28;20069;-72
2022/08/07 11:07:05;;;;;;;7.90;2.35;;;13.10;95.40;;;;;;4966017;28;20021;-73
2022/08/07 11:09:43;;;;;;;9.98;4.57;;;13.00;95.50;;;;;;4977153;28;20018;-70
2022/08/07 11:12:41;;;;;;;3.40;2.58;;;13.00;95.60;;;;;;4975827;28;20050;-72
2022/08/07 11:15:24;;;;;;;4.05;2.10;;;13.00;95.80;;;;;;4972717;28;20049;-70
2022/08/07 11:18:08;;;;;;;15.57;6.07;;;12.90;96.00;;;;;;4975017;28;20025;-70
2022/08/07 11:20:49;;;;;;;6.20;2.95;;;12.90;96.10;;;;;;4990740;28;20053;-71
2022/08/07 11:23:37;;;;;;;10.25;3.53;;;12.80;96.20;;;;;;4973410;28;20062;-70
2022/08/07 11:26:20;;;;;;;6.38;3.25;;;12.80;96.40;;;;;;4976875;28;20024;-71
2022/08/07 11:28:53;;;;;;;4.78;2.38;;;12.80;96.40;;;;;;4972651;28;20463;-70
2022/08/07 11:31:23;;;;;;;4.28;2.40;;;12.80;96.60;;;;;;4957829;28;20018;-71
2022/08/07 11:34:18;;;;;;;19.85;11.73;;;12.70;96.40;;;;;;4962018;28;20719;-70
2022/08/07 11:37:06;;;;;;;8.02;5.55;;;12.70;96.60;;;;;;4976091;28;20041;-71
2022/08/07 11:39:59;;;;;;;4.65;2.05;;;12.60;96.70;;;;;;4978157;28;20018;-71
2022/08/07 11:42:33;;;;;;;;;;;12.50;97.00;;;;;;4977182;28;20034;-71
2022/08/07 11:45:28;;;;;;;8.38;4.20;;;12.50;97.20;;;;;;4976053;28;19996;-71
2022/08/07 11:48:10;;;;;;;9.27;5.10;;;12.50;97.40;;;;;;4976803;28;20022;-73
2022/08/07 11:50:56;;;;;;;11.17;6.17;;;12.50;97.50;;;;;;4978233;28;20025;-72
2022/08/07 11:54:04;;;;;;;6.93;3.92;;;12.40;97.40;;;;;;4976973;28;20031;-71
2022/08/07 11:57:01;;;;;;;8.68;5.28;;;12.40;97.70;;;;;;4995185;28;20054;-70
2022/08/07 11:59:28;;;;;;;11.48;6.68;;;12.40;97.90;;;;;;4978586;28;20022;-70
2022/08/07 12:02:31;;;;;;;15.00;9.50;;;12.40;98.20;;;;;;4980364;28;20526;-70
2022/08/07 12:05:14;;;;;;;8.00;4.80;;;12.30;98.00;;;;;;4980466;28;20434;-71
2022/08/07 12:08:05;;;;;;;11.30;6.43;;;12.30;98.20;;;;;;4981563;28;20050;-70
2022/08/07 12:10:54;;;;;;;4.55;1.85;;;12.30;98.20;;;;;;4981590;28;20031;-71
2022/08/07 12:13:42;;;;;;;9.10;3.90;;;12.30;98.30;;;;;;4980120;28;20054;-70
2022/08/07 12:16:19;;;;;;;4.20;2.13;;;12.30;98.30;;;;;;4979269;28;20033;-70
2022/08/07 12:19:00;;;;;;;10.10;3.17;;;12.30;98.40;;;;;;4980856;28;20113;-71
2022/08/07 12:21:40;;;;;;;6.93;2.78;;;12.30;98.40;;;;;;4980043;28;20045;-71
2022/08/07 12:24:37;;;;;;;8.35;3.08;;;12.30;98.50;;;;;;4979121;28;20030;-72
2022/08/07 12:27:05;;;;;;;7.13;3.63;;;12.30;98.70;;;;;;4979552;28;20014;-71
2022/08/07 12:29:53;;;;;;;5.78;1.95;;;12.20;98.70;;;;;;4980785;28;20027;-72
2022/08/07 12:32:38;;;;;;;9.02;2.55;;;12.20;98.70;;;;;;4980489;28;20102;-71
2022/08/07 12:35:10;;;;;;;6.50;2.20;;;12.10;99.10;;;;;;4980009;28;20121;-70
2022/08/07 12:37:40;;;;;;;8.32;2.38;;;12.10;99.00;;;;;;4980317;28;20019;-71
2022/08/07 12:40:10;;;;;;;4.90;2.35;;;12.10;99.20;;;;;;4979700;28;20034;-70
2022/08/07 12:42:39;;;;;;;4.88;2.00;;;12.00;99.30;;;;;;4979098;28;20399;-72
2022/08/07 12:45:16;;;;;;;8.93;1.65;;;12.00;99.40;;;;;;4979738;28;20054;-72
2022/08/07 12:48:10;;;;;;;3.38;1.48;;;12.00;99.50;;;;;;4979532;28;20110;-70
2022/08/07 12:51:16;;;;;;;4.57;1.67;;;12.00;99.70;;;;;;4980293;28;20113;-69
2022/08/07 12:54:00;;;;;;;5.90;3.40;;;11.90;99.90;;;;;;4979523;28;20103;-71
2022/08/07 12:56:45;;;;;;;6.18;1.90;;;11.90;99.90;;;;;;4963479;28;20390;-72
2022/08/07 12:59:20;;;;;;;3.17;2.05;;;11.90;99.90;;;;;;4978853;28;20026;-72
2022/08/07 13:01:56;;;;;;;4.03;1.30;;;12.00;99.90;;;;;;4979422;28;20044;-72
2022/08/07 13:04:47;;;;;;;5.13;2.25;;;11.90;99.90;;;;;;4980394;28;20479;-72
2022/08/07 13:07:52;;;;;;;3.08;1.48;;;11.90;99.90;;;;;;4979310;28;20695;-70
2022/08/07 13:10:38;;;;;;;5.25;2.20;;;11.80;99.90;;;;;;4978870;28;20034;-71
2022/08/07 13:13:22;;;;;;;2.97;1.63;;;11.80;99.90;;;;;;4977902;28;20395;-73
2022/08/07 13:15:59;;;;;;;5.22;2.50;;;11.70;99.90;;;;;;4979040;28;20065;-72
2022/08/07 13:18:50;;;;;;;5.78;2.67;;;11.70;99.90;;;;;;4960712;28;20026;-72
2022/08/07 13:21:46;;;;;;;5.55;2.28;;;11.70;99.90;;;;;;4959694;28;20026;-72
2022/08/07 13:24:38;;;;;;;5.50;2.13;;;11.60;99.90;;;;;;4977544;28;20395;-71
2022/08/07 13:27:11;;;;;;;3.95;2.25;;;11.60;99.90;;;;;;4977807;28;20019;-72
2022/08/07 13:29:43;;;;;;;4.75;2.90;;;11.60;99.90;;;;;;4979495;28;20053;-71
2022/08/07 13:32:40;;;;;;;5.53;2.25;;;11.50;99.90;;;;;;4977213;28;20049;-73
2022/08/07 13:35:31;;;;;;;3.47;2.15;;;11.50;99.90;;;;;;4990058;28;20053;-72
2022/08/07 13:38:30;;;;;;;7.35;2.45;;;11.40;99.90;;;;;;4979330;28;20023;-72
2022/08/07 13:41:13;;;;;;;4.82;2.15;;;11.40;99.90;;;;;;4979156;28;20114;-71